sensor_id;sensor_type;location;lat;lon;timestamp;pressure;altitude;pressure_sealevel;temperature;humidity
34506;BME280;20748;42.632;23.198;2023-08-24T00:02:14;92291.59;;;20.93;76.13
34506;BME280;20748;42.632;23.198;2023-08-24T00:04:47;92294.63;;;20.92;76.06
34506;BME280;20748;42.632;23.198;2023-08-24T00:07:19;92294.53;;;20.88;75.80
34506;BME280;20748;42.632;23.198;2023-08-24T00:09:53;92288.34;;;20.81;75.80
34506;BME280;20748;42.632;23.198;2023-08-24T00:12:25;92285.75;;;20.84;76.07
34506;BME280;20748;42.632;23.198;2023-08-24T00:14:57;92283.19;;;20.88;76.32
34506;BME280;20748;42.632;23.198;2023-08-24T00:17:30;92282.31;;;20.84;76.41
34506;BME280;20748;42.632;23.198;2023-08-24T00:20:03;92275.69;;;20.70;77.34
34506;BME280;20748;42.632;23.198;2023-08-24T00:22:37;92277.91;;;20.68;77.31
34506;BME280;20748;42.632;23.198;2023-08-24T00:25:10;92275.50;;;20.59;77.71
34506;BME280;20748;42.632;23.198;2023-08-24T00:27:43;92272.03;;;20.55;77.57
34506;BME280;20748;42.632;23.198;2023-08-24T00:30:15;92267.44;;;20.52;77.85
34506;BME280;20748;42.632;23.198;2023-08-24T00:32:50;92269.69;;;20.50;78.34
34506;BME280;20748;42.632;23.198;2023-08-24T00:35:22;92268.09;;;20.45;78.21
34506;BME280;20748;42.632;23.198;2023-08-24T00:37:56;92260.16;;;20.45;78.15
34506;BME280;20748;42.632;23.198;2023-08-24T00:40:29;92258.13;;;20.38;78.17
34506;BME280;20748;42.632;23.198;2023-08-24T00:43:02;92255.81;;;20.37;78.53
34506;BME280;20748;42.632;23.198;2023-08-24T00:45:34;92264.22;;;20.39;78.51
34506;BME280;20748;42.632;23.198;2023-08-24T00:48:07;92266.44;;;20.37;78.70
34506;BME280;20748;42.632;23.198;2023-08-24T00:50:40;92274.38;;;20.37;78.48
34506;BME280;20748;42.632;23.198;2023-08-24T00:53:12;92269.41;;;20.35;78.60
34506;BME280;20748;42.632;23.198;2023-08-24T00:55:46;92270.72;;;20.22;79.11
34506;BME280;20748;42.632;23.198;2023-08-24T00:58:18;92268.00;;;20.18;79.38
34506;BME280;20748;42.632;23.198;2023-08-24T01:00:52;92255.88;;;20.17;79.42
34506;BME280;20748;42.632;23.198;2023-08-24T01:03:26;92259.38;;;20.21;79.36
34506;BME280;20748;42.632;23.198;2023-08-24T01:05:58;92258.81;;;20.12;79.42
34506;BME280;20748;42.632;23.198;2023-08-24T01:08:31;92254.81;;;19.98;80.17
34506;BME280;20748;42.632;23.198;2023-08-24T01:11:11;92256.19;;;19.92;80.71
34506;BME280;20748;42.632;23.198;2023-08-24T01:13:51;92258.38;;;19.90;80.63
34506;BME280;20748;42.632;23.198;2023-08-24T01:16:29;92264.81;;;19.89;81.04
34506;BME280;20748;42.632;23.198;2023-08-24T01:19:07;92263.28;;;19.88;80.88
34506;BME280;20748;42.632;23.198;2023-08-24T01:21:44;92253.88;;;19.91;81.10
34506;BME280;20748;42.632;23.198;2023-08-24T01:24:20;92249.84;;;19.77;81.28
34506;BME280;20748;42.632;23.198;2023-08-24T01:27:00;92250.25;;;19.79;81.72
34506;BME280;20748;42.632;23.198;2023-08-24T01:29:33;92248.22;;;19.72;81.98
34506;BME280;20748;42.632;23.198;2023-08-24T01:32:09;92248.22;;;19.72;82.06
34506;BME280;20748;42.632;23.198;2023-08-24T01:34:42;92246.78;;;19.75;81.75
34506;BME280;20748;42.632;23.198;2023-08-24T01:37:14;92252.78;;;19.72;81.84
34506;BME280;20748;42.632;23.198;2023-08-24T01:39:53;92251.53;;;19.66;82.27
34506;BME280;20748;42.632;23.198;2023-08-24T01:42:26;92253.13;;;19.70;82.27
34506;BME280;20748;42.632;23.198;2023-08-24T01:45:03;92249.56;;;19.63;82.32
34506;BME280;20748;42.632;23.198;2023-08-24T01:47:38;92250.41;;;19.67;82.35
34506;BME280;20748;42.632;23.198;2023-08-24T01:50:12;92243.44;;;19.58;82.64
34506;BME280;20748;42.632;23.198;2023-08-24T01:52:45;92250.34;;;19.63;82.56
34506;BME280;20748;42.632;23.198;2023-08-24T01:55:18;92249.91;;;19.61;82.77
34506;BME280;20748;42.632;23.198;2023-08-24T01:57:52;92245.78;;;19.64;82.45
34506;BME280;20748;42.632;23.198;2023-08-24T02:00:24;92251.16;;;19.48;83.12
34506;BME280;20748;42.632;23.198;2023-08-24T02:02:57;92246.22;;;19.46;83.24
34506;BME280;20748;42.632;23.198;2023-08-24T02:05:30;92251.16;;;19.48;83.43
34506;BME280;20748;42.632;23.198;2023-08-24T02:08:05;92248.16;;;19.49;83.22
34506;BME280;20748;42.632;23.198;2023-08-24T02:10:38;92245.13;;;19.47;83.04
34506;BME280;20748;42.632;23.198;2023-08-24T02:13:11;92250.47;;;19.51;83.12
34506;BME280;20748;42.632;23.198;2023-08-24T02:15:43;92248.91;;;19.50;83.26
34506;BME280;20748;42.632;23.198;2023-08-24T02:18:16;92249.50;;;19.39;83.53
34506;BME280;20748;42.632;23.198;2023-08-24T02:20:49;92249.13;;;19.41;83.58
34506;BME280;20748;42.632;23.198;2023-08-24T02:23:22;92250.94;;;19.37;83.81
34506;BME280;20748;42.632;23.198;2023-08-24T02:25:56;92257.44;;;19.39;84.08
34506;BME280;20748;42.632;23.198;2023-08-24T02:28:29;92253.59;;;19.37;83.85
34506;BME280;20748;42.632;23.198;2023-08-24T02:31:02;92251.41;;;19.23;84.30
34506;BME280;20748;42.632;23.198;2023-08-24T02:33:35;92247.31;;;19.25;84.27
34506;BME280;20748;42.632;23.198;2023-08-24T02:36:08;92249.63;;;19.27;84.12
34506;BME280;20748;42.632;23.198;2023-08-24T02:38:40;92258.38;;;19.31;83.77
34506;BME280;20748;42.632;23.198;2023-08-24T02:41:13;92260.41;;;19.38;83.14
34506;BME280;20748;42.632;23.198;2023-08-24T02:43:47;92254.84;;;19.43;83.30
34506;BME280;20748;42.632;23.198;2023-08-24T02:46:21;92259.44;;;19.46;82.77
34506;BME280;20748;42.632;23.198;2023-08-24T02:48:53;92250.41;;;19.47;82.71
34506;BME280;20748;42.632;23.198;2023-08-24T02:51:25;92248.16;;;19.49;82.83
34506;BME280;20748;42.632;23.198;2023-08-24T02:53:58;92238.78;;;19.52;81.94
34506;BME280;20748;42.632;23.198;2023-08-24T02:56:30;92247.00;;;19.47;81.08
34506;BME280;20748;42.632;23.198;2023-08-24T02:59:03;92244.63;;;19.41;81.05
34506;BME280;20748;42.632;23.198;2023-08-24T03:01:36;92248.09;;;19.45;80.97
34506;BME280;20748;42.632;23.198;2023-08-24T03:04:10;92241.69;;;19.47;80.62
34506;BME280;20748;42.632;23.198;2023-08-24T03:06:43;92240.16;;;19.45;81.16
34506;BME280;20748;42.632;23.198;2023-08-24T03:09:16;92243.56;;;19.46;81.16
34506;BME280;20748;42.632;23.198;2023-08-24T03:11:49;92248.50;;;19.48;81.31
34506;BME280;20748;42.632;23.198;2023-08-24T03:14:22;92249.28;;;19.48;80.77
34506;BME280;20748;42.632;23.198;2023-08-24T03:16:54;92252.34;;;19.50;80.35
34506;BME280;20748;42.632;23.198;2023-08-24T03:19:27;92260.28;;;19.50;80.46
34506;BME280;20748;42.632;23.198;2023-08-24T03:22:00;92256.53;;;19.51;79.46
34506;BME280;20748;42.632;23.198;2023-08-24T03:24:32;92271.56;;;19.47;80.03
34506;BME280;20748;42.632;23.198;2023-08-24T03:27:05;92273.38;;;19.43;79.68
34506;BME280;20748;42.632;23.198;2023-08-24T03:29:38;92273.22;;;19.36;80.20
34506;BME280;20748;42.632;23.198;2023-08-24T03:32:10;92275.38;;;19.30;80.46
34506;BME280;20748;42.632;23.198;2023-08-24T03:34:44;92281.44;;;19.14;81.60
34506;BME280;20748;42.632;23.198;2023-08-24T03:37:16;92285.41;;;19.04;82.17
34506;BME280;20748;42.632;23.198;2023-08-24T03:39:49;92287.25;;;18.88;82.94
34506;BME280;20748;42.632;23.198;2023-08-24T03:42:21;92285.81;;;18.90;83.00
34506;BME280;20748;42.632;23.198;2023-08-24T03:44:54;92283.69;;;18.96;83.13
34506;BME280;20748;42.632;23.198;2023-08-24T03:47:27;92282.97;;;18.99;82.55
34506;BME280;20748;42.632;23.198;2023-08-24T03:49:59;92291.47;;;19.05;82.19
34506;BME280;20748;42.632;23.198;2023-08-24T03:52:32;92293.69;;;19.03;81.95
34506;BME280;20748;42.632;23.198;2023-08-24T03:55:06;92293.22;;;19.01;81.95
34506;BME280;20748;42.632;23.198;2023-08-24T03:57:38;92288.47;;;19.07;81.80
34506;BME280;20748;42.632;23.198;2023-08-24T04:00:12;92292.56;;;19.04;82.06
34506;BME280;20748;42.632;23.198;2023-08-24T04:02:47;92296.66;;;19.01;82.05
34506;BME280;20748;42.632;23.198;2023-08-24T04:05:27;92298.03;;;18.95;82.45
34506;BME280;20748;42.632;23.198;2023-08-24T04:08:00;92298.44;;;18.97;82.00
34506;BME280;20748;42.632;23.198;2023-08-24T04:10:34;92295.78;;;18.97;81.49
34506;BME280;20748;42.632;23.198;2023-08-24T04:13:06;92285.22;;;18.97;80.52
34506;BME280;20748;42.632;23.198;2023-08-24T04:15:39;92294.00;;;19.01;81.96
34506;BME280;20748;42.632;23.198;2023-08-24T04:18:12;92297.75;;;19.00;81.93
34506;BME280;20748;42.632;23.198;2023-08-24T04:20:44;92295.44;;;18.99;82.33
34506;BME280;20748;42.632;23.198;2023-08-24T04:23:16;92296.81;;;18.92;82.90
34506;BME280;20748;42.632;23.198;2023-08-24T04:25:49;92299.47;;;18.92;82.81
34506;BME280;20748;42.632;23.198;2023-08-24T04:28:21;92297.56;;;18.93;82.03
34506;BME280;20748;42.632;23.198;2023-08-24T04:30:56;92298.28;;;18.90;82.42
34506;BME280;20748;42.632;23.198;2023-08-24T04:33:29;92306.28;;;18.94;82.74
34506;BME280;20748;42.632;23.198;2023-08-24T04:36:01;92301.16;;;19.01;83.46
34506;BME280;20748;42.632;23.198;2023-08-24T04:38:35;92285.91;;;18.94;83.35
34506;BME280;20748;42.632;23.198;2023-08-24T04:41:08;92295.88;;;19.01;83.09
34506;BME280;20748;42.632;23.198;2023-08-24T04:43:41;92301.78;;;18.94;83.85
34506;BME280;20748;42.632;23.198;2023-08-24T04:46:14;92290.50;;;18.97;83.42
34506;BME280;20748;42.632;23.198;2023-08-24T04:48:48;92308.34;;;19.00;82.75
34506;BME280;20748;42.632;23.198;2023-08-24T04:51:20;92310.31;;;19.03;82.99
34506;BME280;20748;42.632;23.198;2023-08-24T04:53:52;92318.84;;;19.13;82.58
34506;BME280;20748;42.632;23.198;2023-08-24T04:56:25;92322.59;;;19.12;83.25
34506;BME280;20748;42.632;23.198;2023-08-24T04:58:58;92320.09;;;19.19;82.06
34506;BME280;20748;42.632;23.198;2023-08-24T05:01:33;92316.09;;;19.25;81.50
34506;BME280;20748;42.632;23.198;2023-08-24T05:04:05;92314.19;;;19.26;81.96
34506;BME280;20748;42.632;23.198;2023-08-24T05:06:38;92314.78;;;19.35;82.95
34506;BME280;20748;42.632;23.198;2023-08-24T05:09:10;92317.22;;;19.44;82.97
34506;BME280;20748;42.632;23.198;2023-08-24T05:11:43;92310.56;;;19.50;82.68
34506;BME280;20748;42.632;23.198;2023-08-24T05:14:16;92320.28;;;19.46;81.77
34506;BME280;20748;42.632;23.198;2023-08-24T05:16:49;92323.81;;;19.34;83.18
34506;BME280;20748;42.632;23.198;2023-08-24T05:19:21;92329.34;;;19.45;82.57
34506;BME280;20748;42.632;23.198;2023-08-24T05:21:54;92321.13;;;19.50;81.95
34506;BME280;20748;42.632;23.198;2023-08-24T05:24:26;92327.50;;;19.65;81.66
34506;BME280;20748;42.632;23.198;2023-08-24T05:26:58;92336.34;;;19.73;80.66
34506;BME280;20748;42.632;23.198;2023-08-24T05:29:31;92334.19;;;19.79;80.53
34506;BME280;20748;42.632;23.198;2023-08-24T05:32:05;92328.97;;;19.82;81.40
34506;BME280;20748;42.632;23.198;2023-08-24T05:34:37;92329.59;;;19.95;81.67
34506;BME280;20748;42.632;23.198;2023-08-24T05:37:10;92328.56;;;20.00;81.45
34506;BME280;20748;42.632;23.198;2023-08-24T05:39:42;92320.84;;;20.11;83.33
34506;BME280;20748;42.632;23.198;2023-08-24T05:42:14;92329.78;;;20.22;83.37
34506;BME280;20748;42.632;23.198;2023-08-24T05:44:47;92330.13;;;20.21;81.47
34506;BME280;20748;42.632;23.198;2023-08-24T05:47:20;92336.09;;;20.18;81.80
34506;BME280;20748;42.632;23.198;2023-08-24T05:49:52;92336.03;;;20.34;78.68
34506;BME280;20748;42.632;23.198;2023-08-24T05:52:24;92341.97;;;20.50;79.34
34506;BME280;20748;42.632;23.198;2023-08-24T05:54:57;92335.22;;;20.53;81.01
34506;BME280;20748;42.632;23.198;2023-08-24T05:57:29;92336.66;;;20.70;77.06
34506;BME280;20748;42.632;23.198;2023-08-24T06:00:02;92332.28;;;20.82;76.05
34506;BME280;20748;42.632;23.198;2023-08-24T06:02:44;92341.91;;;20.90;77.05
34506;BME280;20748;42.632;23.198;2023-08-24T06:05:16;92346.28;;;21.02;76.99
34506;BME280;20748;42.632;23.198;2023-08-24T06:07:49;92347.97;;;21.14;76.62
34506;BME280;20748;42.632;23.198;2023-08-24T06:10:22;92347.72;;;21.23;76.07
34506;BME280;20748;42.632;23.198;2023-08-24T06:12:56;92344.66;;;21.21;75.96
34506;BME280;20748;42.632;23.198;2023-08-24T06:15:28;92340.28;;;21.32;75.62
34506;BME280;20748;42.632;23.198;2023-08-24T06:18:02;92350.75;;;21.48;74.27
34506;BME280;20748;42.632;23.198;2023-08-24T06:20:34;92351.59;;;21.56;74.33
34506;BME280;20748;42.632;23.198;2023-08-24T06:23:07;92357.06;;;21.67;74.77
34506;BME280;20748;42.632;23.198;2023-08-24T06:25:39;92353.94;;;21.88;72.52
34506;BME280;20748;42.632;23.198;2023-08-24T06:28:12;92355.34;;;22.09;71.14
34506;BME280;20748;42.632;23.198;2023-08-24T06:30:45;92358.13;;;22.20;69.57
34506;BME280;20748;42.632;23.198;2023-08-24T06:33:19;92360.25;;;22.41;69.68
34506;BME280;20748;42.632;23.198;2023-08-24T06:35:52;92352.53;;;22.63;68.97
34506;BME280;20748;42.632;23.198;2023-08-24T06:38:25;92353.06;;;22.79;69.41
34506;BME280;20748;42.632;23.198;2023-08-24T06:40:57;92349.78;;;22.97;67.94
34506;BME280;20748;42.632;23.198;2023-08-24T06:43:30;92359.47;;;23.20;67.46
34506;BME280;20748;42.632;23.198;2023-08-24T06:46:02;92356.22;;;23.38;65.56
34506;BME280;20748;42.632;23.198;2023-08-24T06:48:36;92361.22;;;23.50;65.67
34506;BME280;20748;42.632;23.198;2023-08-24T06:51:10;92346.78;;;23.55;65.91
34506;BME280;20748;42.632;23.198;2023-08-24T06:53:42;92353.41;;;23.76;64.87
34506;BME280;20748;42.632;23.198;2023-08-24T06:56:15;92360.34;;;24.02;64.51
34506;BME280;20748;42.632;23.198;2023-08-24T06:58:49;92359.75;;;24.31;63.57
34506;BME280;20748;42.632;23.198;2023-08-24T07:01:21;92354.41;;;24.31;62.63
34506;BME280;20748;42.632;23.198;2023-08-24T07:03:54;92357.09;;;24.49;61.97
34506;BME280;20748;42.632;23.198;2023-08-24T07:06:27;92349.16;;;24.78;61.17
34506;BME280;20748;42.632;23.198;2023-08-24T07:09:01;92353.41;;;25.01;60.33
34506;BME280;20748;42.632;23.198;2023-08-24T07:11:37;92358.75;;;25.26;59.41
34506;BME280;20748;42.632;23.198;2023-08-24T07:14:09;92354.94;;;25.42;58.19
34506;BME280;20748;42.632;23.198;2023-08-24T07:16:42;92352.28;;;25.56;57.53
34506;BME280;20748;42.632;23.198;2023-08-24T07:19:15;92353.38;;;25.73;54.25
34506;BME280;20748;42.632;23.198;2023-08-24T07:21:49;92345.31;;;25.95;53.84
34506;BME280;20748;42.632;23.198;2023-08-24T07:24:21;92345.63;;;26.12;53.47
34506;BME280;20748;42.632;23.198;2023-08-24T07:27:15;92344.41;;;26.38;54.04
34506;BME280;20748;42.632;23.198;2023-08-24T07:29:48;92333.97;;;26.59;52.95
34506;BME280;20748;42.632;23.198;2023-08-24T07:32:21;92334.97;;;26.87;52.30
34506;BME280;20748;42.632;23.198;2023-08-24T07:34:56;92331.34;;;27.12;50.71
34506;BME280;20748;42.632;23.198;2023-08-24T07:37:30;92334.94;;;27.40;50.57
34506;BME280;20748;42.632;23.198;2023-08-24T07:40:03;92329.81;;;27.60;49.09
34506;BME280;20748;42.632;23.198;2023-08-24T07:42:43;92338.13;;;27.69;47.97
34506;BME280;20748;42.632;23.198;2023-08-24T07:45:15;92332.56;;;27.91;48.71
34506;BME280;20748;42.632;23.198;2023-08-24T07:47:47;92334.19;;;28.16;47.18
34506;BME280;20748;42.632;23.198;2023-08-24T07:50:21;92330.25;;;28.28;47.29
34506;BME280;20748;42.632;23.198;2023-08-24T07:52:54;92334.28;;;28.40;48.15
34506;BME280;20748;42.632;23.198;2023-08-24T07:55:29;92328.75;;;28.54;46.92
34506;BME280;20748;42.632;23.198;2023-08-24T07:58:02;92324.91;;;28.56;46.44
34506;BME280;20748;42.632;23.198;2023-08-24T08:00:35;92329.00;;;28.64;46.84
34506;BME280;20748;42.632;23.198;2023-08-24T08:03:07;92325.34;;;28.50;46.86
34506;BME280;20748;42.632;23.198;2023-08-24T08:05:41;92325.88;;;28.69;47.75
34506;BME280;20748;42.632;23.198;2023-08-24T08:08:13;92334.47;;;28.84;47.24
34506;BME280;20748;42.632;23.198;2023-08-24T08:10:45;92337.31;;;29.01;48.14
34506;BME280;20748;42.632;23.198;2023-08-24T08:13:18;92331.09;;;29.07;47.70
34506;BME280;20748;42.632;23.198;2023-08-24T08:15:50;92336.75;;;29.13;47.33
34506;BME280;20748;42.632;23.198;2023-08-24T08:18:23;92334.59;;;29.28;48.92
34506;BME280;20748;42.632;23.198;2023-08-24T08:20:56;92335.94;;;29.40;46.28
34506;BME280;20748;42.632;23.198;2023-08-24T08:23:29;92333.38;;;29.57;45.98
34506;BME280;20748;42.632;23.198;2023-08-24T08:26:01;92334.03;;;29.85;45.63
34506;BME280;20748;42.632;23.198;2023-08-24T08:28:34;92338.13;;;29.93;45.57
34506;BME280;20748;42.632;23.198;2023-08-24T08:31:08;92339.53;;;29.78;44.50
34506;BME280;20748;42.632;23.198;2023-08-24T08:33:41;92325.69;;;29.79;44.53
34506;BME280;20748;42.632;23.198;2023-08-24T08:36:14;92332.22;;;29.98;44.45
34506;BME280;20748;42.632;23.198;2023-08-24T08:38:46;92323.38;;;30.22;44.57
34506;BME280;20748;42.632;23.198;2023-08-24T08:41:22;92330.53;;;30.28;43.83
34506;BME280;20748;42.632;23.198;2023-08-24T08:43:55;92327.97;;;30.41;42.72
34506;BME280;20748;42.632;23.198;2023-08-24T08:46:29;92331.66;;;30.48;42.39
34506;BME280;20748;42.632;23.198;2023-08-24T08:49:01;92318.91;;;30.52;41.84
34506;BME280;20748;42.632;23.198;2023-08-24T08:51:35;92322.75;;;30.71;41.57
34506;BME280;20748;42.632;23.198;2023-08-24T08:54:08;92314.59;;;30.75;41.56
34506;BME280;20748;42.632;23.198;2023-08-24T08:56:41;92320.66;;;30.79;41.23
34506;BME280;20748;42.632;23.198;2023-08-24T08:59:14;92312.41;;;30.86;41.46
34506;BME280;20748;42.632;23.198;2023-08-24T09:01:47;92311.34;;;31.00;40.91
34506;BME280;20748;42.632;23.198;2023-08-24T09:04:20;92309.28;;;31.04;40.32
34506;BME280;20748;42.632;23.198;2023-08-24T09:06:53;92303.16;;;31.04;40.75
34506;BME280;20748;42.632;23.198;2023-08-24T09:09:26;92309.16;;;31.12;40.65
34506;BME280;20748;42.632;23.198;2023-08-24T09:11:59;92307.28;;;31.08;40.49
34506;BME280;20748;42.632;23.198;2023-08-24T09:14:32;92307.19;;;31.12;40.70
34506;BME280;20748;42.632;23.198;2023-08-24T09:17:05;92302.00;;;30.68;40.45
34506;BME280;20748;42.632;23.198;2023-08-24T09:19:37;92289.78;;;30.84;40.72
34506;BME280;20748;42.632;23.198;2023-08-24T09:22:11;92293.91;;;31.05;39.64
34506;BME280;20748;42.632;23.198;2023-08-24T09:24:43;92291.53;;;31.40;39.15
34506;BME280;20748;42.632;23.198;2023-08-24T09:27:17;92284.97;;;31.71;39.03
34506;BME280;20748;42.632;23.198;2023-08-24T09:29:50;92281.91;;;31.85;37.70
34506;BME280;20748;42.632;23.198;2023-08-24T09:32:23;92274.44;;;32.06;37.78
34506;BME280;20748;42.632;23.198;2023-08-24T09:35:02;92283.09;;;32.27;37.27
34506;BME280;20748;42.632;23.198;2023-08-24T09:37:36;92271.47;;;32.56;37.68
34506;BME280;20748;42.632;23.198;2023-08-24T09:40:09;92269.28;;;32.90;36.85
34506;BME280;20748;42.632;23.198;2023-08-24T09:42:44;92274.22;;;33.17;35.72
34506;BME280;20748;42.632;23.198;2023-08-24T09:45:16;92270.59;;;32.98;34.23
34506;BME280;20748;42.632;23.198;2023-08-24T09:47:51;92272.19;;;33.08;35.21
34506;BME280;20748;42.632;23.198;2023-08-24T09:50:25;92268.75;;;33.08;34.97
34506;BME280;20748;42.632;23.198;2023-08-24T09:52:59;92263.28;;;33.21;34.54
34506;BME280;20748;42.632;23.198;2023-08-24T09:55:36;92257.84;;;33.34;33.96
34506;BME280;20748;42.632;23.198;2023-08-24T09:58:10;92257.53;;;32.97;32.96
34506;BME280;20748;42.632;23.198;2023-08-24T10:00:45;92252.66;;;33.04;33.11
34506;BME280;20748;42.632;23.198;2023-08-24T10:03:20;92250.41;;;33.25;34.66
34506;BME280;20748;42.632;23.198;2023-08-24T10:05:54;92248.38;;;33.16;34.62
34506;BME280;20748;42.632;23.198;2023-08-24T10:08:36;92248.09;;;33.01;34.65
34506;BME280;20748;42.632;23.198;2023-08-24T10:11:10;92243.25;;;33.31;33.19
34506;BME280;20748;42.632;23.198;2023-08-24T10:13:52;92241.81;;;33.53;33.44
34506;BME280;20748;42.632;23.198;2023-08-24T10:16:27;92243.00;;;33.74;33.05
34506;BME280;20748;42.632;23.198;2023-08-24T10:19:02;92238.44;;;33.84;33.40
34506;BME280;20748;42.632;23.198;2023-08-24T10:21:36;92240.72;;;34.17;32.19
34506;BME280;20748;42.632;23.198;2023-08-24T10:24:11;92242.50;;;34.11;32.35
34506;BME280;20748;42.632;23.198;2023-08-24T10:26:44;92245.19;;;34.42;32.24
34506;BME280;20748;42.632;23.198;2023-08-24T10:29:17;92241.63;;;34.55;31.23
34506;BME280;20748;42.632;23.198;2023-08-24T10:31:50;92239.66;;;34.46;30.69
34506;BME280;20748;42.632;23.198;2023-08-24T10:34:23;92237.88;;;34.52;31.13
34506;BME280;20748;42.632;23.198;2023-08-24T10:36:56;92231.47;;;34.68;30.37
34506;BME280;20748;42.632;23.198;2023-08-24T10:39:29;92223.63;;;34.61;31.44
34506;BME280;20748;42.632;23.198;2023-08-24T10:42:02;92225.81;;;34.12;30.87
34506;BME280;20748;42.632;23.198;2023-08-24T10:44:35;92227.00;;;33.89;30.35
34506;BME280;20748;42.632;23.198;2023-08-24T10:47:12;92225.16;;;34.31;30.98
34506;BME280;20748;42.632;23.198;2023-08-24T10:49:58;92223.63;;;34.61;29.98
34506;BME280;20748;42.632;23.198;2023-08-24T10:52:34;92222.75;;;34.74;30.59
34506;BME280;20748;42.632;23.198;2023-08-24T10:55:22;92221.09;;;34.76;30.05
34506;BME280;20748;42.632;23.198;2023-08-24T10:57:56;92223.13;;;34.53;30.47
34506;BME280;20748;42.632;23.198;2023-08-24T11:00:30;92220.41;;;34.12;30.58
34506;BME280;20748;42.632;23.198;2023-08-24T11:03:03;92220.19;;;33.75;30.54
34506;BME280;20748;42.632;23.198;2023-08-24T11:05:36;92215.63;;;33.50;30.58
34506;BME280;20748;42.632;23.198;2023-08-24T11:08:08;92210.56;;;33.39;32.11
34506;BME280;20748;42.632;23.198;2023-08-24T11:10:46;92209.72;;;33.06;33.56
34506;BME280;20748;42.632;23.198;2023-08-24T11:13:19;92205.25;;;32.64;35.14
34506;BME280;20748;42.632;23.198;2023-08-24T11:15:55;92208.47;;;32.33;35.45
34506;BME280;20748;42.632;23.198;2023-08-24T11:18:29;92214.84;;;32.13;36.93
34506;BME280;20748;42.632;23.198;2023-08-24T11:21:03;92230.75;;;31.52;37.57
34506;BME280;20748;42.632;23.198;2023-08-24T11:23:37;92231.34;;;31.14;38.38
34506;BME280;20748;42.632;23.198;2023-08-24T11:26:10;92220.84;;;31.03;39.01
34506;BME280;20748;42.632;23.198;2023-08-24T11:28:43;92233.53;;;31.02;39.54
34506;BME280;20748;42.632;23.198;2023-08-24T11:31:16;92220.00;;;30.73;39.64
34506;BME280;20748;42.632;23.198;2023-08-24T11:33:53;92221.63;;;30.70;40.69
34506;BME280;20748;42.632;23.198;2023-08-24T11:36:25;92221.34;;;30.64;40.90
34506;BME280;20748;42.632;23.198;2023-08-24T11:38:59;92229.97;;;30.39;41.71
34506;BME280;20748;42.632;23.198;2023-08-24T11:41:33;92238.03;;;30.22;41.81
34506;BME280;20748;42.632;23.198;2023-08-24T11:44:05;92230.03;;;30.19;41.76
34506;BME280;20748;42.632;23.198;2023-08-24T11:46:58;92224.31;;;30.17;42.54
34506;BME280;20748;42.632;23.198;2023-08-24T11:49:33;92232.63;;;30.22;40.55
34506;BME280;20748;42.632;23.198;2023-08-24T11:52:05;92229.38;;;30.14;40.17
34506;BME280;20748;42.632;23.198;2023-08-24T11:54:38;92221.16;;;30.01;40.78
34506;BME280;20748;42.632;23.198;2023-08-24T11:57:14;92215.28;;;30.07;41.03
34506;BME280;20748;42.632;23.198;2023-08-24T11:59:47;92213.97;;;29.95;41.30
34506;BME280;20748;42.632;23.198;2023-08-24T12:02:20;92211.53;;;29.84;41.63
34506;BME280;20748;42.632;23.198;2023-08-24T12:04:53;92205.66;;;29.89;42.22
34506;BME280;20748;42.632;23.198;2023-08-24T12:07:25;92196.16;;;29.84;42.70
34506;BME280;20748;42.632;23.198;2023-08-24T12:10:00;92197.66;;;29.85;42.33
34506;BME280;20748;42.632;23.198;2023-08-24T12:12:33;92186.00;;;29.92;42.22
34506;BME280;20748;42.632;23.198;2023-08-24T12:15:07;92187.69;;;30.02;42.35
34506;BME280;20748;42.632;23.198;2023-08-24T12:17:43;92187.63;;;30.06;42.14
34506;BME280;20748;42.632;23.198;2023-08-24T12:20:20;92185.41;;;30.01;42.07
34506;BME280;20748;42.632;23.198;2023-08-24T12:22:54;92180.59;;;30.12;41.68
34506;BME280;20748;42.632;23.198;2023-08-24T12:25:27;92180.78;;;30.22;42.39
34506;BME280;20748;42.632;23.198;2023-08-24T12:28:11;92188.25;;;30.14;41.38
34506;BME280;20748;42.632;23.198;2023-08-24T12:30:45;92184.72;;;30.34;41.56
34506;BME280;20748;42.632;23.198;2023-08-24T12:33:22;92185.09;;;30.52;42.34
34506;BME280;20748;42.632;23.198;2023-08-24T12:35:55;92188.50;;;30.36;41.31
34506;BME280;20748;42.632;23.198;2023-08-24T12:38:27;92193.91;;;30.36;41.61
34506;BME280;20748;42.632;23.198;2023-08-24T12:41:00;92187.00;;;30.19;41.59
34506;BME280;20748;42.632;23.198;2023-08-24T12:43:33;92187.72;;;29.82;42.15
34506;BME280;20748;42.632;23.198;2023-08-24T12:46:05;92178.28;;;29.94;42.85
34506;BME280;20748;42.632;23.198;2023-08-24T12:48:38;92179.00;;;30.15;42.69
34506;BME280;20748;42.632;23.198;2023-08-24T12:51:11;92185.81;;;30.20;42.48
34506;BME280;20748;42.632;23.198;2023-08-24T12:53:43;92184.28;;;30.19;43.88
34506;BME280;20748;42.632;23.198;2023-08-24T12:56:16;92186.56;;;29.83;42.18
34506;BME280;20748;42.632;23.198;2023-08-24T12:58:49;92182.72;;;29.84;43.46
34506;BME280;20748;42.632;23.198;2023-08-24T13:01:21;92195.84;;;29.99;41.97
34506;BME280;20748;42.632;23.198;2023-08-24T13:03:54;92196.41;;;30.10;42.05
34506;BME280;20748;42.632;23.198;2023-08-24T13:06:26;92197.91;;;30.11;42.37
34506;BME280;20748;42.632;23.198;2023-08-24T13:08:59;92202.56;;;30.07;41.57
34506;BME280;20748;42.632;23.198;2023-08-24T13:11:32;92205.19;;;29.74;42.44
34506;BME280;20748;42.632;23.198;2023-08-24T13:14:05;92201.97;;;29.63;42.49
34506;BME280;20748;42.632;23.198;2023-08-24T13:16:38;92189.59;;;29.45;42.77
34506;BME280;20748;42.632;23.198;2023-08-24T13:19:11;92187.97;;;29.51;43.20
34506;BME280;20748;42.632;23.198;2023-08-24T13:21:43;92193.34;;;29.71;42.84
34506;BME280;20748;42.632;23.198;2023-08-24T13:24:16;92185.72;;;29.86;41.41